map of HDS home
Great Circle Mapper logo
HDS - Airport
Location
City:  Hoedspruit, Limpopo, South Africa
Name:Hoedspruit Airport
Old (Alt.):Eastgate Airport
ICAO / IATA:FAHS / HDS

Details
Type:Airport (Aerodrome, Airfield)
Use:Military
Latitude:2422'07"S (-24.368641)
Longitude:3102'55"E (31.048744)
Datum:WGS 1984
Elevation:1743 ft (531 m)
Variation:17.01W (WMM2015 magnetic declination)
-0.10 annual change
Runways:2
Longest:13095 × 151 ft (3991 × 46 m), paved

Time
Time Zone:UTC+2
Local Time:

Weather
METAR:FAHS 070000Z AUTO 17008KT //// // ////// 22/17 Q1015

Related Locations
Nearby:
Farthest:ITO: 11935 mi / 19208 km
Hilo [Hilo Intl], Hawaii, HI, US

Find:

   beyond  
but within

Other Information
Maps:
NOTAMs:
Links:
Sources:

  
flag of South Africa
flag of Limpopo
  

Sectional Chart

Flight Planning
at skyvector.com

Satellite Image

Google Maps Satellite view

 

Copyright © 2004-2016 Karl L. Swartz. All rights reserved.
The Great Circle Mapper name and logo are trademarks of the Great Circle Mapper.
All other trademarks mentioned herein belong to their respective owners.
Please see credits for attibutions and further copyright information.

  Follow gcmap on Facebook Follow gcmap on Twitter Follow gcmap on Google+ GCmap on LinkedIn

hCard Microformat

Geo Microformat